Time;durP1;ratioP1;P1;durP2;ratioP2;P2;SDS_P1;SDS_P2;PMS_P1;PMS_P2;Temp;Humidity;BMP_temperature;BMP_pressure;BME280_temperature;BME280_humidity;BME280_pressure;Samples;Min_cycle;Max_cycle;Signal;HPM_P1;HPM_P2
2021/08/05 00:01:23;;;;;;;0.52;0.52;;;18.30;78.70;;;;;;5075125;28;20485;-77
2021/08/05 00:03:49;;;;;;;0.50;0.50;;;18.20;78.70;;;;;;5074836;28;20099;-77
2021/08/05 00:06:14;;;;;;;0.60;0.60;;;18.20;78.80;;;;;;5074963;28;20078;-77
2021/08/05 00:08:40;;;;;;;0.85;0.85;;;18.20;78.90;;;;;;5056305;28;20016;-77
2021/08/05 00:11:05;;;;;;;0.70;0.70;;;18.20;79.00;;;;;;5074932;28;20549;-77
2021/08/05 00:13:31;;;;;;;0.40;0.40;;;18.10;79.00;;;;;;5074794;28;20472;-76
2021/08/05 00:15:57;;;;;;;0.70;0.70;;;18.10;79.10;;;;;;5074829;28;20029;-76
2021/08/05 00:18:24;;;;;;;0.57;0.57;;;18.10;79.10;;;;;;5074458;28;20043;-77
2021/08/05 00:20:49;;;;;;;0.50;0.50;;;18.10;79.10;;;;;;5074747;28;20020;-76
2021/08/05 00:23:15;;;;;;;0.88;0.82;;;18.00;79.20;;;;;;5074634;28;20382;-76
2021/08/05 00:25:41;;;;;;;0.20;0.20;;;18.10;79.30;;;;;;5074537;28;20071;-76
2021/08/05 00:28:06;;;;;;;0.50;0.50;;;18.10;79.30;;;;;;5056743;28;20107;-77
2021/08/05 00:30:32;;;;;;;0.50;0.40;;;18.10;79.30;;;;;;5074536;28;20024;-76
2021/08/05 00:32:58;;;;;;;0.47;0.47;;;18.00;79.20;;;;;;5073908;28;20426;-76
2021/08/05 00:35:23;;;;;;;0.40;0.40;;;18.10;79.30;;;;;;5074406;28;20073;-76
2021/08/05 00:37:49;;;;;;;0.60;0.60;;;18.00;79.30;;;;;;5074332;28;20099;-76
2021/08/05 00:40:15;;;;;;;0.47;0.47;;;18.00;79.40;;;;;;5074253;28;20055;-76
2021/08/05 00:42:41;;;;;;;0.43;0.43;;;18.00;79.40;;;;;;5074189;28;20056;-76
2021/08/05 00:45:07;;;;;;;0.50;0.50;;;18.00;79.40;;;;;;5074226;28;20024;-76
2021/08/05 00:47:33;;;;;;;0.68;0.68;;;18.00;79.50;;;;;;5073716;28;20534;-76
2021/08/05 00:49:58;;;;;;;0.50;0.50;;;17.90;79.50;;;;;;5074122;28;20028;-76
2021/08/05 00:52:24;;;;;;;0.70;0.70;;;17.90;79.60;;;;;;5074042;28;20330;-76
2021/08/05 00:54:50;;;;;;;1.20;0.50;;;17.90;79.80;;;;;;5073966;28;20036;-76
2021/08/05 00:57:16;;;;;;;0.65;0.65;;;17.80;79.80;;;;;;5074235;28;20025;-76
2021/08/05 00:59:41;;;;;;;0.50;0.50;;;17.80;79.90;;;;;;5073901;28;20040;-76
2021/08/05 01:02:17;;;;;;;0.50;0.50;;;17.80;79.90;;;;;;5073743;28;20024;-76
2021/08/05 01:04:46;;;;;;;0.75;0.75;;;17.80;80.00;;;;;;5073853;28;20032;-76
2021/08/05 01:07:36;;;;;;;0.90;0.90;;;17.70;80.20;;;;;;5074026;28;20055;-76
2021/08/05 01:10:25;;;;;;;0.55;0.55;;;17.60;80.20;;;;;;5073800;28;20064;-76
2021/08/05 01:12:51;;;;;;;0.52;0.52;;;17.60;80.30;;;;;;5073722;28;20027;-76
2021/08/05 01:15:22;;;;;;;0.73;0.73;;;17.50;80.50;;;;;;5073711;28;20032;-76
2021/08/05 01:17:53;;;;;;;0.55;0.55;;;17.50;80.50;;;;;;5055390;28;20017;-76
2021/08/05 01:20:21;;;;;;;0.65;0.65;;;17.50;80.60;;;;;;5054902;28;20031;-76
2021/08/05 01:23:02;;;;;;;1.33;1.17;;;17.40;80.60;;;;;;5073567;28;20070;-76
2021/08/05 01:25:43;;;;;;;0.65;0.65;;;17.40;80.60;;;;;;5073402;28;20029;-76
2021/08/05 01:28:10;;;;;;;0.95;0.95;;;17.40;80.70;;;;;;5073475;28;20520;-76
2021/08/05 01:30:36;;;;;;;0.70;0.70;;;17.30;80.90;;;;;;5073458;28;20020;-76
2021/08/05 01:33:03;;;;;;;0.75;0.75;;;17.30;80.90;;;;;;5054977;28;20025;-76
2021/08/05 01:35:30;;;;;;;0.75;0.75;;;17.30;80.90;;;;;;5073530;28;20436;-76
2021/08/05 01:37:56;;;;;;;0.75;0.60;;;17.20;80.90;;;;;;5073335;28;20071;-76
2021/08/05 01:40:23;;;;;;;0.65;0.60;;;17.20;81.00;;;;;;5073327;28;20031;-76
2021/08/05 01:42:48;;;;;;;0.63;0.63;;;17.20;81.10;;;;;;5073284;28;20051;-75
2021/08/05 01:45:16;;;;;;;0.70;0.70;;;17.10;81.00;;;;;;5073347;28;20059;-76
2021/08/05 01:47:42;;;;;;;0.70;0.70;;;17.10;81.10;;;;;;5072859;28;20466;-76
2021/08/05 01:50:11;;;;;;;1.10;1.00;;;17.10;81.20;;;;;;5073392;28;20028;-76
2021/08/05 01:52:37;;;;;;;0.82;0.82;;;17.10;81.30;;;;;;5073369;28;20035;-76
2021/08/05 01:55:07;;;;;;;0.68;0.68;;;17.00;81.20;;;;;;5073175;28;20035;-76
2021/08/05 01:57:32;;;;;;;0.82;0.70;;;17.00;81.20;;;;;;5073118;28;20525;-76
2021/08/05 01:59:58;;;;;;;0.73;0.73;;;17.00;81.30;;;;;;5072508;28;20197;-76
2021/08/05 02:02:24;;;;;;;0.90;0.90;;;17.00;81.30;;;;;;5055269;28;20021;-76
2021/08/05 02:05:36;;;;;;;0.65;0.65;;;16.90;81.40;;;;;;5055033;28;20104;-76
2021/08/05 02:08:06;;;;;;;0.60;0.60;;;17.00;81.30;;;;;;4991795;28;20026;-75
2021/08/05 02:10:34;;;;;;;0.70;0.70;;;17.00;81.40;;;;;;4991771;28;20120;-75
2021/08/05 02:13:17;;;;;;;0.60;0.60;;;17.00;81.30;;;;;;4991781;28;20554;-76
2021/08/05 02:15:50;;;;;;;0.70;0.70;;;17.00;81.30;;;;;;4991443;28;20053;-75
2021/08/05 02:18:17;;;;;;;0.70;0.70;;;17.00;81.20;;;;;;4991693;28;20101;-76
2021/08/05 02:20:44;;;;;;;0.60;0.60;;;17.00;81.30;;;;;;4975321;28;20045;-75
2021/08/05 02:23:11;;;;;;;1.33;1.05;;;17.00;81.30;;;;;;4991668;28;20085;-76
2021/08/05 02:25:41;;;;;;;0.60;0.60;;;17.00;81.30;;;;;;4991721;28;20035;-76
2021/08/05 02:28:07;;;;;;;0.88;0.88;;;16.90;81.30;;;;;;4991524;28;20162;-75
2021/08/05 02:30:33;;;;;;;1.10;0.90;;;16.90;81.40;;;;;;4975355;28;20238;-76
2021/08/05 02:32:59;;;;;;;0.73;0.73;;;16.90;81.40;;;;;;4995276;28;20019;-76
2021/08/05 02:35:27;;;;;;;0.90;0.80;;;16.90;81.40;;;;;;4995444;28;20431;-76
2021/08/05 02:37:53;;;;;;;1.48;1.17;;;16.90;81.40;;;;;;4995298;28;20027;-75
2021/08/05 02:40:19;;;;;;;0.80;0.80;;;16.90;81.50;;;;;;4995290;28;20109;-75
2021/08/05 02:42:46;;;;;;;0.77;0.77;;;16.90;81.50;;;;;;5067511;28;20108;-75
2021/08/05 02:45:13;;;;;;;1.00;1.00;;;16.90;81.50;;;;;;5075914;28;20086;-75
2021/08/05 02:47:39;;;;;;;1.13;1.02;;;16.90;81.60;;;;;;5076384;28;20108;-75
2021/08/05 02:50:06;;;;;;;0.73;0.70;;;16.90;81.60;;;;;;5076354;28;20066;-75
2021/08/05 02:52:33;;;;;;;1.13;1.13;;;16.90;81.70;;;;;;5076338;28;20025;-75
2021/08/05 02:55:00;;;;;;;1.88;1.42;;;16.90;81.70;;;;;;5076293;28;20043;-75
2021/08/05 02:57:26;;;;;;;1.50;1.35;;;16.90;81.70;;;;;;5076324;28;20070;-75
2021/08/05 02:59:52;;;;;;;1.20;1.10;;;16.90;81.70;;;;;;5075585;28;20049;-75
2021/08/05 03:02:18;;;;;;;0.88;0.88;;;16.90;81.60;;;;;;5076220;28;20024;-76
2021/08/05 03:04:44;;;;;;;1.23;1.15;;;17.00;81.60;;;;;;5076133;28;20492;-76
2021/08/05 03:07:11;;;;;;;2.63;1.02;;;17.00;81.60;;;;;;5076100;28;20012;-75
2021/08/05 03:09:37;;;;;;;1.40;1.00;;;17.00;81.60;;;;;;5076247;28;20085;-75
2021/08/05 03:12:03;;;;;;;0.88;0.88;;;16.90;81.70;;;;;;5076086;28;20521;-76
2021/08/05 03:14:28;;;;;;;0.73;0.73;;;16.90;81.70;;;;;;5075371;28;20060;-75
2021/08/05 03:16:54;;;;;;;1.00;1.00;;;17.00;81.80;;;;;;5075825;28;20405;-75
2021/08/05 03:19:19;;;;;;;1.10;0.95;;;17.00;81.80;;;;;;5076117;28;20060;-75
2021/08/05 03:21:45;;;;;;;0.70;0.70;;;16.90;81.70;;;;;;5075982;28;20023;-75
2021/08/05 03:24:10;;;;;;;0.80;0.80;;;17.00;81.70;;;;;;5075803;28;20102;-75
2021/08/05 03:26:36;;;;;;;0.77;0.70;;;17.00;81.70;;;;;;5075544;28;20025;-75
2021/08/05 03:29:01;;;;;;;1.23;0.88;;;17.00;81.60;;;;;;5075161;28;20025;-75
2021/08/05 03:31:27;;;;;;;1.00;0.90;;;17.00;81.60;;;;;;5075786;28;20051;-75
2021/08/05 03:33:53;;;;;;;1.30;0.93;;;17.00;81.50;;;;;;5075664;28;20036;-75
2021/08/05 03:36:18;;;;;;;1.17;1.08;;;17.00;81.60;;;;;;5075611;28;20048;-75
2021/08/05 03:38:44;;;;;;;1.13;1.00;;;17.00;81.70;;;;;;5075509;28;20032;-75
2021/08/05 03:41:09;;;;;;;1.35;1.10;;;16.90;81.80;;;;;;5075626;28;20051;-75
2021/08/05 03:43:35;;;;;;;0.70;0.70;;;17.00;81.90;;;;;;5073905;28;20021;-75
2021/08/05 03:46:01;;;;;;;0.68;0.68;;;16.90;81.90;;;;;;5057618;28;20112;-75
2021/08/05 03:48:26;;;;;;;0.57;0.57;;;16.90;82.00;;;;;;5075315;28;20382;-75
2021/08/05 03:50:53;;;;;;;0.90;0.90;;;16.90;82.00;;;;;;5075536;28;20060;-75
2021/08/05 03:53:19;;;;;;;1.00;0.90;;;16.90;81.90;;;;;;5075242;28;20084;-75
2021/08/05 03:55:44;;;;;;;0.93;0.90;;;16.90;81.90;;;;;;5075222;28;20024;-75
2021/08/05 03:58:10;;;;;;;0.80;0.80;;;17.00;81.90;;;;;;5074695;28;20077;-75
2021/08/05 04:00:36;;;;;;;0.80;0.80;;;16.90;81.80;;;;;;5075183;28;20044;-75
2021/08/05 04:03:02;;;;;;;0.70;0.70;;;17.00;81.90;;;;;;5057107;28;20021;-75
2021/08/05 04:05:28;;;;;;;1.00;0.93;;;16.90;81.90;;;;;;5075028;28;20035;-75
2021/08/05 04:07:54;;;;;;;0.98;0.88;;;17.00;81.90;;;;;;5075124;28;20111;-75
2021/08/05 04:10:19;;;;;;;0.90;0.90;;;17.00;81.90;;;;;;5056477;28;20028;-75
2021/08/05 04:12:45;;;;;;;0.75;0.75;;;17.00;82.10;;;;;;5074867;28;20020;-75
2021/08/05 04:15:10;;;;;;;0.50;0.50;;;16.90;82.00;;;;;;5074727;28;20086;-75
2021/08/05 04:17:37;;;;;;;0.75;0.75;;;17.00;82.00;;;;;;5075091;28;20017;-75
2021/08/05 04:20:04;;;;;;;0.60;0.60;;;17.00;82.00;;;;;;5074783;28;20481;-75
2021/08/05 04:22:29;;;;;;;0.70;0.70;;;17.00;81.90;;;;;;5074739;28;20024;-75
2021/08/05 04:24:55;;;;;;;0.55;0.55;;;17.00;81.90;;;;;;5074342;28;20021;-75
2021/08/05 04:27:20;;;;;;;0.47;0.43;;;17.00;82.00;;;;;;5074394;28;20040;-75
2021/08/05 04:29:46;;;;;;;0.60;0.60;;;17.00;82.00;;;;;;5074769;28;20017;-75
2021/08/05 04:32:11;;;;;;;1.10;1.00;;;17.00;82.00;;;;;;5074405;28;20359;-75
2021/08/05 04:34:37;;;;;;;1.23;1.00;;;17.00;82.10;;;;;;5074407;28;20036;-75
2021/08/05 04:37:03;;;;;;;0.93;0.90;;;17.00;82.10;;;;;;5074280;28;20028;-75
2021/08/05 04:39:28;;;;;;;0.77;0.77;;;17.00;82.10;;;;;;5073853;28;20032;-75
2021/08/05 04:41:54;;;;;;;0.93;0.93;;;17.00;82.30;;;;;;5056371;28;20025;-75
2021/08/05 04:44:19;;;;;;;0.63;0.63;;;17.00;82.30;;;;;;5074143;28;20082;-75
2021/08/05 04:46:45;;;;;;;0.95;0.88;;;17.00;82.20;;;;;;5056321;28;20012;-75
2021/08/05 04:49:10;;;;;;;0.65;0.65;;;17.00;82.20;;;;;;5074179;28;20473;-75
2021/08/05 04:51:36;;;;;;;0.95;0.90;;;17.00;82.20;;;;;;5074159;28;20099;-75
2021/08/05 04:54:03;;;;;;;0.73;0.73;;;17.00;82.10;;;;;;5073351;28;20503;-75
2021/08/05 04:56:29;;;;;;;0.60;0.60;;;17.10;82.30;;;;;;5074031;28;20016;-75
2021/08/05 04:58:55;;;;;;;0.50;0.50;;;17.10;82.30;;;;;;5055857;28;20063;-75
2021/08/05 05:01:20;;;;;;;0.80;0.80;;;17.10;82.10;;;;;;5074064;28;20052;-75
2021/08/05 05:03:46;;;;;;;0.80;0.70;;;17.20;82.10;;;;;;5073848;28;20020;-75
2021/08/05 05:06:11;;;;;;;0.90;0.90;;;17.20;82.00;;;;;;5073916;28;20017;-75
2021/08/05 05:08:37;;;;;;;0.55;0.55;;;17.30;82.00;;;;;;5073380;28;20363;-76
2021/08/05 05:11:02;;;;;;;1.15;0.88;;;17.30;81.90;;;;;;5055601;28;20103;-75
2021/08/05 05:13:28;;;;;;;0.70;0.70;;;17.30;81.90;;;;;;5073742;28;20378;-75
2021/08/05 05:15:53;;;;;;;1.27;0.70;;;17.40;81.90;;;;;;5073750;28;20060;-75
2021/08/05 05:18:21;;;;;;;0.70;0.70;;;17.40;81.70;;;;;;5073741;28;20027;-75
2021/08/05 05:20:47;;;;;;;0.77;0.77;;;17.40;81.70;;;;;;5073611;28;20028;-75
2021/08/05 05:23:13;;;;;;;1.00;0.90;;;17.40;81.70;;;;;;5073178;28;20020;-75
2021/08/05 05:25:40;;;;;;;0.63;0.63;;;17.50;81.70;;;;;;5073327;28;20036;-75
2021/08/05 05:28:06;;;;;;;0.60;0.60;;;17.50;81.80;;;;;;5073522;28;20496;-76
2021/08/05 05:30:32;;;;;;;0.88;0.82;;;17.60;81.70;;;;;;5055463;28;20477;-76
2021/08/05 05:32:58;;;;;;;0.93;0.93;;;17.60;81.80;;;;;;5073378;28;20025;-75
2021/08/05 05:35:24;;;;;;;0.95;0.82;;;17.50;81.70;;;;;;5073413;28;20046;-75
2021/08/05 05:37:51;;;;;;;0.70;0.70;;;17.60;81.80;;;;;;5073043;28;20484;-75
2021/08/05 05:40:17;;;;;;;1.00;0.90;;;17.60;81.80;;;;;;5073340;28;20020;-76
2021/08/05 05:42:43;;;;;;;1.10;1.00;;;17.60;81.80;;;;;;5073441;28;20029;-75
2021/08/05 05:45:10;;;;;;;0.73;0.73;;;17.70;81.80;;;;;;5073598;28;20024;-75
2021/08/05 05:47:36;;;;;;;1.08;0.98;;;17.70;81.80;;;;;;5073001;28;20051;-75
2021/08/05 05:50:02;;;;;;;1.13;1.02;;;17.70;81.80;;;;;;5073376;28;20028;-75
2021/08/05 05:52:28;;;;;;;1.33;1.23;;;17.70;81.90;;;;;;5072924;28;20020;-75
2021/08/05 05:54:53;;;;;;;0.98;0.90;;;17.70;81.90;;;;;;5073155;28;20039;-75
2021/08/05 05:57:19;;;;;;;1.13;1.00;;;17.70;81.90;;;;;;5073428;28;20055;-75
2021/08/05 05:59:45;;;;;;;1.20;1.10;;;17.70;81.90;;;;;;5073032;28;20055;-75
2021/08/05 06:02:11;;;;;;;1.02;0.98;;;17.80;81.90;;;;;;5073227;28;20024;-76
2021/08/05 06:04:36;;;;;;;1.45;1.02;;;17.80;81.80;;;;;;5073252;28;20078;-76
2021/08/05 06:07:03;;;;;;;0.90;0.77;;;17.90;81.70;;;;;;5075747;28;20484;-75
2021/08/05 06:09:28;;;;;;;0.90;0.90;;;18.00;81.70;;;;;;5077075;28;20090;-75
2021/08/05 06:11:54;;;;;;;0.63;0.63;;;18.00;81.70;;;;;;5077154;28;20373;-75
2021/08/05 06:14:19;;;;;;;0.80;0.80;;;18.00;81.70;;;;;;5077196;28;20108;-75
2021/08/05 06:16:45;;;;;;;0.80;0.80;;;18.00;82.30;;;;;;5076998;28;20497;-76
2021/08/05 06:19:12;;;;;;;0.82;0.82;;;18.00;81.70;;;;;;5077079;28;20028;-75
2021/08/05 06:21:38;;;;;;;0.80;0.80;;;18.00;81.80;;;;;;5076635;28;20048;-75
2021/08/05 06:24:04;;;;;;;0.90;0.90;;;18.00;81.80;;;;;;5076844;28;20440;-75
2021/08/05 06:26:29;;;;;;;1.50;0.95;;;18.10;81.80;;;;;;5076919;28;20078;-75
2021/08/05 06:28:55;;;;;;;1.25;1.00;;;18.10;81.70;;;;;;5076843;28;20458;-75
2021/08/05 06:31:20;;;;;;;1.17;0.98;;;18.10;81.70;;;;;;5076772;28;20028;-75
2021/08/05 06:33:54;;;;;;;1.20;0.88;;;18.20;81.80;;;;;;5058705;28;20031;-75
2021/08/05 06:36:20;;;;;;;1.30;1.05;;;18.20;81.70;;;;;;5076347;28;20031;-76
2021/08/05 06:38:46;;;;;;;1.17;1.10;;;18.20;81.70;;;;;;5076861;28;20024;-75
2021/08/05 06:41:11;;;;;;;0.82;0.82;;;18.20;81.70;;;;;;5076702;28;20021;-75
2021/08/05 06:43:37;;;;;;;1.67;1.38;;;18.30;81.50;;;;;;5076633;28;20020;-75
2021/08/05 06:46:02;;;;;;;1.23;1.13;;;18.40;81.50;;;;;;5076391;28;20016;-75
2021/08/05 06:48:28;;;;;;;1.38;1.27;;;18.40;81.30;;;;;;5076495;28;20032;-75
2021/08/05 06:50:53;;;;;;;0.73;0.73;;;18.40;81.40;;;;;;5075887;28;20048;-75
2021/08/05 06:53:20;;;;;;;1.17;1.00;;;18.50;81.50;;;;;;5076249;28;20024;-75
2021/08/05 06:55:46;;;;;;;0.70;0.70;;;18.50;81.50;;;;;;5058491;28;20021;-75
2021/08/05 06:58:12;;;;;;;0.70;0.70;;;18.60;81.50;;;;;;5076326;28;20389;-75
2021/08/05 07:00:37;;;;;;;0.70;0.70;;;18.60;81.30;;;;;;5076098;28;20512;-75
2021/08/05 07:03:03;;;;;;;0.60;0.60;;;18.70;81.20;;;;;;5076241;28;20461;-75
2021/08/05 07:05:28;;;;;;;0.43;0.43;;;18.70;81.20;;;;;;5075772;28;20021;-76
2021/08/05 07:07:55;;;;;;;1.00;0.98;;;18.80;81.20;;;;;;5058117;28;20020;-75
2021/08/05 07:10:22;;;;;;;0.85;0.82;;;18.90;81.20;;;;;;5076111;28;20012;-75
2021/08/05 07:12:48;;;;;;;1.10;1.00;;;18.90;81.10;;;;;;5076183;28;20031;-76
2021/08/05 07:15:13;;;;;;;0.80;0.80;;;19.00;81.10;;;;;;5075705;28;20115;-76
2021/08/05 07:17:44;;;;;;;1.10;1.00;;;19.00;81.10;;;;;;5075816;28;20021;-76
2021/08/05 07:20:14;;;;;;;1.48;1.13;;;19.10;81.00;;;;;;5075512;28;20530;-76
2021/08/05 07:22:40;;;;;;;1.60;0.88;;;19.10;81.00;;;;;;5076124;28;20017;-76
2021/08/05 07:25:08;;;;;;;1.27;1.10;;;19.10;81.00;;;;;;5075789;28;20020;-76
2021/08/05 07:27:35;;;;;;;1.63;1.52;;;19.20;81.00;;;;;;5075949;28;20029;-76
2021/08/05 07:30:00;;;;;;;0.93;0.90;;;19.20;80.90;;;;;;5075770;28;20028;-76
2021/08/05 07:32:26;;;;;;;1.30;1.20;;;19.30;81.00;;;;;;5075760;28;20388;-76
2021/08/05 07:34:51;;;;;;;1.42;1.33;;;19.30;80.90;;;;;;5075079;28;20032;-76
2021/08/05 07:37:17;;;;;;;1.30;1.20;;;19.30;80.90;;;;;;5057485;28;20243;-76
2021/08/05 07:39:42;;;;;;;1.23;1.13;;;19.40;80.90;;;;;;5057645;28;20032;-76
2021/08/05 07:42:08;;;;;;;1.67;1.20;;;19.40;80.90;;;;;;5057440;28;20023;-75
2021/08/05 07:44:33;;;;;;;0.95;0.90;;;19.50;81.00;;;;;;5075471;28;20063;-76
2021/08/05 07:46:59;;;;;;;1.63;1.33;;;19.60;81.00;;;;;;5075497;28;20017;-76
2021/08/05 07:49:25;;;;;;;1.17;1.08;;;19.70;80.90;;;;;;5074856;28;20361;-76
2021/08/05 07:51:51;;;;;;;1.88;1.67;;;19.70;80.80;;;;;;5075377;28;20347;-76
2021/08/05 07:54:17;;;;;;;1.52;1.33;;;19.80;80.70;;;;;;5075254;28;20032;-76
2021/08/05 07:56:42;;;;;;;2.53;1.95;;;19.80;80.70;;;;;;5075188;28;20028;-76
2021/08/05 07:59:08;;;;;;;1.33;1.23;;;19.90;80.70;;;;;;5075157;28;20043;-75
2021/08/05 08:01:33;;;;;;;1.88;1.08;;;20.00;80.50;;;;;;5075200;28;20039;-76
2021/08/05 08:03:59;;;;;;;1.10;1.10;;;20.10;80.40;;;;;;5074565;28;20020;-76
2021/08/05 08:06:24;;;;;;;1.08;0.90;;;20.20;80.30;;;;;;5074998;28;20020;-76
2021/08/05 08:08:51;;;;;;;0.98;0.98;;;20.20;80.20;;;;;;5074883;28;20024;-76
2021/08/05 08:11:22;;;;;;;0.95;0.95;;;20.30;80.20;;;;;;5075122;28;20021;-76
2021/08/05 08:13:48;;;;;;;1.52;1.27;;;20.40;80.10;;;;;;5074885;28;20078;-76
2021/08/05 08:16:14;;;;;;;1.60;1.45;;;20.50;80.10;;;;;;5074800;28;20608;-76
2021/08/05 08:18:39;;;;;;;1.65;1.52;;;20.50;80.00;;;;;;5074352;28;20031;-76
2021/08/05 08:21:05;;;;;;;1.73;1.63;;;20.50;80.00;;;;;;5074827;28;20023;-76
2021/08/05 08:23:30;;;;;;;1.80;1.50;;;20.50;80.10;;;;;;5074638;28;20028;-76
2021/08/05 08:25:56;;;;;;;2.30;1.60;;;20.50;80.10;;;;;;5074647;28;20024;-76
2021/08/05 08:28:21;;;;;;;2.25;1.73;;;20.40;80.10;;;;;;5074118;28;20017;-76
2021/08/05 08:30:47;;;;;;;2.33;2.13;;;20.40;80.30;;;;;;5074382;28;20041;-76
2021/08/05 08:33:12;;;;;;;2.33;1.67;;;20.40;80.20;;;;;;5073934;28;20470;-75
2021/08/05 08:35:39;;;;;;;2.38;1.85;;;20.50;80.30;;;;;;5056594;28;20487;-76
2021/08/05 08:38:06;;;;;;;2.80;2.33;;;20.50;80.10;;;;;;5074373;28;20147;-76
2021/08/05 08:40:32;;;;;;;2.72;2.05;;;20.60;80.00;;;;;;5074435;28;20025;-76
2021/08/05 08:42:58;;;;;;;2.03;1.70;;;20.60;80.00;;;;;;5074426;28;20028;-76
2021/08/05 08:45:23;;;;;;;1.60;1.42;;;20.70;80.10;;;;;;5074215;28;20016;-75
2021/08/05 08:47:53;;;;;;;1.85;1.65;;;20.80;80.00;;;;;;5073673;28;20047;-76
2021/08/05 08:50:23;;;;;;;2.05;1.92;;;20.90;79.70;;;;;;5074029;28;20473;-76
2021/08/05 08:52:53;;;;;;;2.50;2.10;;;21.00;79.60;;;;;;5056332;28;20017;-76
2021/08/05 08:55:22;;;;;;;2.40;1.70;;;21.10;79.20;;;;;;5074048;28;20037;-76
2021/08/05 08:57:51;;;;;;;2.50;1.92;;;21.30;79.10;;;;;;5073853;28;20081;-76
2021/08/05 09:00:16;;;;;;;2.05;1.70;;;21.50;78.90;;;;;;5055783;28;20139;-76
2021/08/05 09:02:46;;;;;;;3.10;1.98;;;21.70;78.60;;;;;;5073388;28;20052;-76
2021/08/05 09:05:12;;;;;;;2.38;1.98;;;21.80;78.50;;;;;;5073976;28;20016;-76
2021/08/05 09:07:38;;;;;;;1.77;1.45;;;21.90;78.50;;;;;;5073729;28;20111;-76
2021/08/05 09:10:04;;;;;;;2.13;1.90;;;22.00;78.40;;;;;;5055831;28;20115;-77
2021/08/05 09:12:30;;;;;;;3.15;2.33;;;22.10;78.30;;;;;;5073614;28;20031;-76
2021/08/05 09:14:56;;;;;;;3.20;2.33;;;22.10;78.10;;;;;;5055265;28;20024;-76
2021/08/05 09:17:33;;;;;;;2.47;2.15;;;22.00;78.50;;;;;;5073678;28;20032;-76
2021/08/05 09:20:02;;;;;;;2.10;1.90;;;22.00;78.70;;;;;;5073588;28;20052;-76
2021/08/05 09:22:39;;;;;;;2.33;2.00;;;22.00;78.70;;;;;;5073563;28;20017;-75
2021/08/05 09:25:22;;;;;;;3.35;2.42;;;22.00;78.60;;;;;;5073504;28;20029;-76
2021/08/05 09:27:49;;;;;;;2.22;1.95;;;22.00;78.50;;;;;;5073626;28;20047;-76
2021/08/05 09:30:31;;;;;;;2.40;2.00;;;22.00;78.80;;;;;;5073125;28;20029;-76
2021/08/05 09:33:10;;;;;;;2.15;1.80;;;22.00;78.60;;;;;;5055587;28;20056;-76
2021/08/05 09:35:37;;;;;;;1.95;1.75;;;22.00;78.70;;;;;;5073458;28;20040;-76
2021/08/05 09:38:20;;;;;;;1.83;1.60;;;22.00;78.80;;;;;;5073410;28;20427;-76
2021/08/05 09:40:46;;;;;;;2.75;2.35;;;22.10;78.70;;;;;;5054728;28;20431;-76
2021/08/05 09:43:22;;;;;;;2.70;2.17;;;22.10;78.60;;;;;;5055201;28;20079;-76
2021/08/05 09:45:47;;;;;;;3.20;2.15;;;22.10;78.60;;;;;;5072971;28;20103;-76
2021/08/05 09:48:13;;;;;;;2.05;1.67;;;22.10;78.70;;;;;;5073253;28;20104;-76
2021/08/05 09:50:38;;;;;;;1.80;1.70;;;22.20;78.50;;;;;;5055402;28;20461;-76
2021/08/05 09:53:09;;;;;;;2.60;2.17;;;22.40;78.40;;;;;;5073267;28;20081;-76
2021/08/05 09:55:35;;;;;;;2.72;2.08;;;22.40;78.10;;;;;;5073036;28;20055;-76
2021/08/05 09:58:02;;;;;;;2.53;2.00;;;22.40;78.70;;;;;;5073122;28;20025;-76
2021/08/05 10:00:43;;;;;;;2.97;2.45;;;22.40;78.00;;;;;;5072495;28;20459;-76
2021/08/05 10:03:09;;;;;;;2.53;2.03;;;22.50;77.80;;;;;;5072964;28;20020;-76
2021/08/05 10:05:35;;;;;;;3.42;2.03;;;22.60;77.80;;;;;;5073227;28;20099;-76
2021/08/05 10:08:01;;;;;;;2.50;1.98;;;22.70;77.70;;;;;;5073032;28;20024;-75
2021/08/05 10:10:47;;;;;;;2.10;1.90;;;22.80;77.60;;;;;;5073057;28;20377;-76
2021/08/05 10:13:13;;;;;;;2.22;1.55;;;22.90;77.40;;;;;;5054621;28;20025;-76
2021/08/05 10:15:49;;;;;;;2.05;1.85;;;23.00;77.30;;;;;;5073007;28;20021;-76
2021/08/05 10:18:15;;;;;;;2.25;1.80;;;23.20;77.10;;;;;;5073033;28;20511;-76
2021/08/05 10:20:40;;;;;;;2.15;1.80;;;23.30;77.10;;;;;;5054852;28;20025;-77
2021/08/05 10:23:06;;;;;;;2.47;1.83;;;23.30;76.90;;;;;;5072984;28;20043;-76
2021/08/05 10:25:32;;;;;;;2.55;2.10;;;23.40;76.80;;;;;;5054912;28;20029;-76
2021/08/05 10:28:01;;;;;;;2.00;1.80;;;23.40;76.90;;;;;;5072424;28;20082;-76
2021/08/05 10:30:27;;;;;;;1.60;1.50;;;23.50;77.00;;;;;;5072986;28;20016;-77
2021/08/05 10:32:53;;;;;;;1.88;1.52;;;23.50;76.90;;;;;;5072774;28;20024;-76
2021/08/05 10:35:20;;;;;;;1.73;1.60;;;23.50;76.90;;;;;;5072729;28;20029;-76
2021/08/05 10:37:49;;;;;;;1.67;1.58;;;23.50;77.00;;;;;;5072772;28;20071;-76
2021/08/05 10:40:15;;;;;;;2.13;1.67;;;23.50;76.90;;;;;;5072815;28;20426;-76
2021/08/05 10:42:42;;;;;;;2.80;2.13;;;23.50;77.00;;;;;;5054336;28;20492;-77
2021/08/05 10:45:09;;;;;;;3.33;2.05;;;23.50;76.90;;;;;;5072647;28;20031;-76
2021/08/05 10:47:35;;;;;;;2.08;1.73;;;23.50;76.90;;;;;;5072758;28;20032;-76
2021/08/05 10:50:03;;;;;;;2.13;1.77;;;23.60;76.90;;;;;;5054707;28;20021;-76
2021/08/05 10:52:34;;;;;;;1.85;1.60;;;23.60;76.70;;;;;;5074523;28;20546;-77
2021/08/05 10:55:00;;;;;;;1.50;1.40;;;23.70;76.60;;;;;;5076068;28;20032;-77
2021/08/05 10:57:26;;;;;;;2.15;1.50;;;23.80;76.40;;;;;;5075763;28;20025;-76
2021/08/05 11:00:11;;;;;;;1.65;1.25;;;23.90;76.30;;;;;;5076077;28;20049;-76
2021/08/05 11:02:53;;;;;;;1.85;1.70;;;24.10;76.10;;;;;;5076255;28;20016;-76
2021/08/05 11:05:21;;;;;;;1.95;1.65;;;24.10;76.00;;;;;;5076202;28;20044;-77
2021/08/05 11:07:47;;;;;;;1.80;1.65;;;24.20;76.10;;;;;;5076035;28;20488;-76
2021/08/05 11:10:14;;;;;;;2.10;1.73;;;24.20;76.10;;;;;;5058242;28;20358;-77
2021/08/05 11:12:51;;;;;;;1.60;1.50;;;24.30;76.10;;;;;;5075687;28;20021;-77
2021/08/05 11:15:24;;;;;;;2.42;2.00;;;24.50;75.70;;;;;;5076056;28;20094;-76
2021/08/05 11:18:17;;;;;;;1.88;1.75;;;24.50;75.70;;;;;;5057959;28;20024;-76
2021/08/05 11:20:50;;;;;;;2.17;1.90;;;24.70;75.60;;;;;;5075879;28;20047;-77
2021/08/05 11:23:25;;;;;;;2.45;2.25;;;24.90;75.30;;;;;;5075936;28;20021;-77
2021/08/05 11:25:51;;;;;;;2.63;2.00;;;24.90;75.40;;;;;;5075384;28;20123;-77
2021/08/05 11:28:24;;;;;;;2.42;2.17;;;25.00;75.50;;;;;;5075683;28;20099;-77
2021/08/05 11:30:56;;;;;;;2.67;1.83;;;25.20;75.10;;;;;;5075799;28;20032;-77
2021/08/05 11:33:37;;;;;;;2.17;1.92;;;25.30;74.90;;;;;;5075651;28;20166;-77
2021/08/05 11:36:25;;;;;;;2.97;2.22;;;25.20;75.00;;;;;;5057648;28;20481;-77
2021/08/05 11:39:01;;;;;;;1.55;1.45;;;25.30;75.10;;;;;;5075345;28;20039;-77
2021/08/05 11:41:46;;;;;;;1.52;1.42;;;25.70;74.80;;;;;;5075126;28;20028;-77
2021/08/05 11:44:29;;;;;;;3.20;2.45;;;26.30;73.80;;;;;;5075393;28;20020;-77
2021/08/05 11:47:00;;;;;;;2.30;2.10;;;26.10;73.30;;;;;;5075461;28;20489;-77
2021/08/05 11:49:40;;;;;;;2.53;2.22;;;25.70;73.50;;;;;;5075277;28;20052;-77
2021/08/05 11:52:43;;;;;;;1.92;1.73;;;25.40;74.20;;;;;;5075462;28;20024;-77
2021/08/05 11:55:22;;;;;;;1.80;1.70;;;25.00;74.60;;;;;;4993221;28;20042;-77
2021/08/05 11:57:52;;;;;;;2.00;1.80;;;24.70;75.10;;;;;;4993829;28;20026;-76
2021/08/05 12:00:27;;;;;;;1.98;1.70;;;24.60;75.30;;;;;;4993638;28;20054;-77
2021/08/05 12:02:54;;;;;;;1.75;1.63;;;24.50;75.30;;;;;;4993491;28;20030;-77
2021/08/05 12:05:24;;;;;;;2.30;2.10;;;24.60;75.30;;;;;;4993309;28;20388;-77
2021/08/05 12:07:50;;;;;;;1.52;1.42;;;25.10;74.70;;;;;;4993549;28;20061;-77
2021/08/05 12:10:22;;;;;;;2.00;1.80;;;25.80;73.60;;;;;;4993133;28;20042;-77
2021/08/05 12:12:56;;;;;;;2.60;2.40;;;26.70;71.70;;;;;;4993589;28;20027;-77
2021/08/05 12:15:30;;;;;;;2.20;2.00;;;27.40;70.90;;;;;;4993525;28;20495;-77
2021/08/05 12:18:05;;;;;;;3.00;2.70;;;28.00;70.00;;;;;;4993495;28;20057;-77
2021/08/05 12:20:39;;;;;;;2.45;2.25;;;28.30;69.10;;;;;;4993658;28;20038;-77
2021/08/05 12:23:09;;;;;;;3.15;2.63;;;27.90;69.60;;;;;;4993295;28;20105;-77
2021/08/05 12:25:47;;;;;;;2.45;1.80;;;27.20;70.70;;;;;;4992876;28;20030;-76
2021/08/05 12:28:21;;;;;;;1.95;1.75;;;26.60;71.80;;;;;;5004575;28;20574;-76
2021/08/05 12:30:49;;;;;;;2.25;2.05;;;26.20;72.70;;;;;;5056708;28;20021;-76
2021/08/05 12:33:23;;;;;;;1.57;1.40;;;25.70;73.40;;;;;;5074535;28;20108;-76
2021/08/05 12:36:14;;;;;;;1.55;1.45;;;25.40;73.80;;;;;;5074356;28;20500;-76
2021/08/05 12:39:05;;;;;;;1.58;1.48;;;25.10;74.20;;;;;;5056035;28;20021;-76
2021/08/05 12:41:34;;;;;;;2.28;2.08;;;24.70;74.50;;;;;;5074332;28;20029;-76
2021/08/05 12:44:09;;;;;;;2.63;2.30;;;24.30;74.90;;;;;;5074290;28;20115;-76
2021/08/05 12:46:36;;;;;;;2.42;2.10;;;24.10;75.30;;;;;;5074081;28;20115;-76
2021/08/05 12:49:01;;;;;;;2.97;2.63;;;23.80;75.70;;;;;;5074207;28;20024;-76
2021/08/05 12:51:30;;;;;;;2.83;2.42;;;23.50;75.90;;;;;;5074182;28;20047;-75
2021/08/05 12:54:10;;;;;;;2.97;2.63;;;23.20;76.40;;;;;;5073543;28;20036;-75